Time;durP1;ratioP1;P1;durP2;ratioP2;P2;SDS_P1;SDS_P2;PMS_P1;PMS_P2;Temp;Humidity;BMP_temperature;BMP_pressure;BME280_temperature;BME280_humidity;BME280_pressure;Samples;Min_cycle;Max_cycle;Signal;HPM_P1;HPM_P2
2023/06/20 00:00:40;;;;;;;15.57;12.65;;;19.50;99.90;;;;;;4947170;28;20043;-71
2023/06/20 00:03:06;;;;;;;15.15;12.05;;;19.40;99.90;;;;;;5025899;28;20040;-71
2023/06/20 00:05:31;;;;;;;16.45;12.63;;;19.40;99.90;;;;;;5056626;28;20047;-72
2023/06/20 00:07:57;;;;;;;16.17;11.82;;;19.40;99.90;;;;;;5062905;28;20043;-71
2023/06/20 00:10:23;;;;;;;15.38;11.80;;;19.40;99.90;;;;;;4959200;28;20051;-71
2023/06/20 00:12:49;;;;;;;13.90;11.45;;;19.40;99.90;;;;;;4956802;28;20141;-71
2023/06/20 00:15:14;;;;;;;15.50;12.55;;;19.40;99.90;;;;;;4954471;28;20047;-71
2023/06/20 00:17:40;;;;;;;15.82;12.40;;;19.50;99.90;;;;;;4952241;28;20050;-71
2023/06/20 00:20:07;;;;;;;14.75;11.82;;;19.50;99.90;;;;;;4963492;28;20047;-71
2023/06/20 00:22:35;;;;;;;16.30;12.32;;;19.50;99.90;;;;;;4958563;28;20085;-72
2023/06/20 00:25:03;;;;;;;13.77;11.65;;;19.40;99.90;;;;;;5030707;28;20043;-71
2023/06/20 00:27:28;;;;;;;14.40;12.18;;;19.40;99.90;;;;;;5047899;28;20047;-73
2023/06/20 00:29:54;;;;;;;15.70;13.60;;;19.40;99.90;;;;;;4973560;28;20051;-71
2023/06/20 00:32:20;;;;;;;14.45;12.48;;;;;;;;;;4953560;28;20043;-71
2023/06/20 00:34:46;;;;;;;14.60;12.27;;;19.30;99.90;;;;;;4961101;28;20047;-71
2023/06/20 00:37:11;;;;;;;13.65;11.77;;;19.20;99.90;;;;;;4958265;28;20490;-71
2023/06/20 00:39:37;;;;;;;14.02;11.77;;;19.20;99.90;;;;;;4964820;28;20427;-72
2023/06/20 00:42:04;;;;;;;14.85;12.25;;;;;;;;;;5018634;28;20470;-71
2023/06/20 00:44:29;;;;;;;15.77;12.13;;;19.10;99.90;;;;;;5063258;28;20063;-71
2023/06/20 00:46:55;;;;;;;14.43;11.15;;;19.10;99.90;;;;;;5022552;28;20097;-71
2023/06/20 00:49:21;;;;;;;13.95;11.55;;;19.00;99.90;;;;;;4961728;28;20096;-71
2023/06/20 00:51:49;;;;;;;14.50;12.18;;;19.00;99.90;;;;;;5024172;28;20051;-71
2023/06/20 00:54:15;;;;;;;16.67;12.15;;;19.00;99.90;;;;;;4932810;28;20047;-71
2023/06/20 00:56:42;;;;;;;13.65;11.68;;;18.90;99.90;;;;;;4958324;28;20111;-71
2023/06/20 00:59:08;;;;;;;14.02;11.45;;;18.90;99.90;;;;;;4966255;28;20483;-71
2023/06/20 01:01:33;;;;;;;13.85;11.80;;;18.90;99.90;;;;;;5026059;28;20071;-71
2023/06/20 01:04:00;;;;;;;14.68;11.82;;;18.90;99.90;;;;;;4975165;28;20128;-72
2023/06/20 01:06:44;;;;;;;13.88;11.23;;;18.90;99.90;;;;;;5023392;28;20815;-71
2023/06/20 01:09:44;;;;;;;14.82;12.50;;;18.90;99.90;;;;;;5026091;28;20055;-72
2023/06/20 01:12:25;;;;;;;14.95;11.70;;;18.90;99.90;;;;;;4953853;28;20546;-71
2023/06/20 01:15:19;;;;;;;14.30;11.25;;;18.90;99.90;;;;;;5016453;28;20417;-71
2023/06/20 01:17:45;;;;;;;14.43;11.90;;;;;;;;;;4949129;28;20054;-71
2023/06/20 01:20:23;;;;;;;17.83;12.30;;;;;;;;;;5021482;28;20052;-72
2023/06/20 01:23:10;;;;;;;14.15;12.43;;;18.90;99.90;;;;;;5024842;28;20039;-71
2023/06/20 01:25:46;;;;;;;15.55;12.38;;;18.80;99.90;;;;;;5023842;28;20041;-72
2023/06/20 01:28:33;;;;;;;16.77;11.70;;;18.70;99.90;;;;;;4956556;28;20626;-71
2023/06/20 01:31:09;;;;;;;14.65;12.40;;;18.70;99.90;;;;;;4950916;28;20129;-71
2023/06/20 01:33:47;;;;;;;16.42;12.00;;;18.70;99.90;;;;;;4952812;28;20395;-71
2023/06/20 01:36:16;;;;;;;16.17;11.48;;;18.70;99.90;;;;;;4965692;28;20050;-71
2023/06/20 01:38:44;;;;;;;14.32;11.70;;;18.60;99.90;;;;;;5029335;28;20419;-72
2023/06/20 01:41:13;;;;;;;14.75;11.30;;;18.70;99.90;;;;;;4951002;28;20047;-72
2023/06/20 01:43:39;;;;;;;16.45;12.00;;;18.70;99.90;;;;;;4967868;28;20096;-71
2023/06/20 01:46:06;;;;;;;14.68;11.57;;;18.60;99.90;;;;;;4943572;28;20060;-72
2023/06/20 01:48:34;;;;;;;13.60;11.75;;;18.60;99.90;;;;;;4975961;28;20077;-71
2023/06/20 01:51:00;;;;;;;17.65;12.07;;;18.60;99.90;;;;;;4957927;28;20478;-72
2023/06/20 01:53:27;;;;;;;17.20;12.88;;;18.60;99.90;;;;;;4949245;28;20051;-72
2023/06/20 01:55:55;;;;;;;15.45;13.00;;;18.70;99.90;;;;;;4949855;28;20092;-71
2023/06/20 01:58:21;;;;;;;20.25;12.82;;;18.70;99.90;;;;;;4970329;28;20062;-71
2023/06/20 02:00:48;;;;;;;15.90;12.40;;;18.60;99.90;;;;;;4945502;28;20047;-71
2023/06/20 02:03:16;;;;;;;15.65;12.88;;;18.50;99.90;;;;;;4946991;28;20089;-71
2023/06/20 02:05:43;;;;;;;15.15;12.70;;;18.50;99.90;;;;;;4950910;28;20051;-71
2023/06/20 02:08:11;;;;;;;15.38;12.65;;;18.50;99.90;;;;;;4947560;28;20096;-71
2023/06/20 02:10:38;;;;;;;14.75;12.75;;;18.50;99.90;;;;;;4964301;28;20043;-72
2023/06/20 02:13:03;;;;;;;17.60;12.60;;;18.40;99.90;;;;;;4983728;28;20047;-71
2023/06/20 02:15:30;;;;;;;14.68;12.25;;;18.40;99.90;;;;;;4946856;28;20515;-71
2023/06/20 02:17:56;;;;;;;16.08;12.80;;;18.40;99.90;;;;;;4949606;28;20035;-69
2023/06/20 02:20:22;;;;;;;17.75;12.23;;;18.40;99.90;;;;;;4944922;28;20047;-71
2023/06/20 02:22:50;;;;;;;17.00;13.27;;;18.40;99.90;;;;;;4998192;28;20054;-71
2023/06/20 02:25:31;;;;;;;17.67;13.75;;;18.30;99.90;;;;;;4948245;28;20364;-71
2023/06/20 02:27:57;;;;;;;16.98;13.48;;;18.30;99.90;;;;;;4944636;28;20088;-71
2023/06/20 02:30:27;;;;;;;19.65;14.25;;;18.30;99.90;;;;;;4947058;28;20048;-71
2023/06/20 02:32:55;;;;;;;15.35;12.43;;;18.20;99.90;;;;;;4951866;28;20503;-72
2023/06/20 02:35:23;;;;;;;16.33;13.43;;;18.10;99.90;;;;;;4974185;28;20092;-71
2023/06/20 02:37:52;;;;;;;17.65;13.40;;;18.10;99.90;;;;;;4941450;28;20204;-72
2023/06/20 02:40:22;;;;;;;17.90;13.82;;;18.10;99.90;;;;;;4945721;28;20051;-71
2023/06/20 02:42:48;;;;;;;15.55;12.95;;;18.10;99.90;;;;;;4982989;28;20043;-71
2023/06/20 02:45:14;;;;;;;18.27;13.25;;;18.00;99.90;;;;;;4945663;28;20050;-71
2023/06/20 02:47:59;;;;;;;15.15;11.85;;;18.00;99.90;;;;;;5011628;28;20039;-71
2023/06/20 02:50:58;;;;;;;17.15;13.20;;;18.10;99.90;;;;;;4961534;28;20051;-71
2023/06/20 02:54:02;;;;;;;16.23;13.02;;;18.10;99.90;;;;;;4964782;28;20551;-71
2023/06/20 02:56:29;;;;;;;;;;;18.20;99.90;;;;;;4936631;28;20667;-71
2023/06/20 02:58:56;;;;;;;17.23;12.90;;;18.20;99.90;;;;;;4952963;28;20008;-71
2023/06/20 03:01:25;;;;;;;17.80;14.13;;;18.10;99.90;;;;;;4944055;28;20055;-71
2023/06/20 03:03:54;;;;;;;18.13;12.38;;;18.20;99.90;;;;;;4986533;28;20047;-71
2023/06/20 03:06:27;;;;;;;18.05;12.68;;;18.10;99.90;;;;;;4946993;28;20134;-71
2023/06/20 03:08:55;;;;;;;18.27;14.55;;;18.20;99.90;;;;;;4944123;28;20510;-71
2023/06/20 03:11:21;;;;;;;18.73;13.57;;;18.20;99.90;;;;;;4948141;28;20537;-71
2023/06/20 03:13:47;;;;;;;14.57;12.68;;;18.20;99.90;;;;;;4944537;28;20499;-71
2023/06/20 03:16:13;;;;;;;15.30;13.00;;;18.10;99.90;;;;;;4943012;28;20091;-71
2023/06/20 03:18:39;;;;;;;18.50;14.40;;;18.20;99.90;;;;;;4940731;28;20051;-71
2023/06/20 03:21:05;;;;;;;17.40;13.52;;;18.20;99.90;;;;;;4948163;28;20046;-71
2023/06/20 03:23:31;;;;;;;16.20;12.55;;;18.20;99.90;;;;;;4961672;28;20050;-71
2023/06/20 03:25:58;;;;;;;16.85;13.55;;;18.20;99.90;;;;;;4941340;28;20480;-71
2023/06/20 03:28:24;;;;;;;15.68;13.13;;;18.20;99.90;;;;;;4941438;28;20050;-71
2023/06/20 03:30:50;;;;;;;17.15;13.55;;;18.30;99.90;;;;;;4953636;28;20130;-71
2023/06/20 03:33:16;;;;;;;15.93;12.82;;;18.30;99.90;;;;;;4945727;28;20039;-71
2023/06/20 03:35:41;;;;;;;16.40;12.75;;;18.30;99.90;;;;;;4951316;28;20495;-71
2023/06/20 03:38:07;;;;;;;19.20;13.80;;;18.30;99.90;;;;;;4957194;28;20047;-71
2023/06/20 03:40:33;;;;;;;15.23;13.27;;;18.30;99.90;;;;;;5031610;28;20060;-72
2023/06/20 03:42:59;;;;;;;18.73;13.30;;;18.40;99.90;;;;;;4959608;28;20045;-72
2023/06/20 03:45:24;;;;;;;18.85;14.30;;;18.40;99.90;;;;;;4956885;28;20051;-71
2023/06/20 03:47:51;;;;;;;16.17;12.38;;;18.40;99.90;;;;;;4955419;28;20122;-71
2023/06/20 03:50:16;;;;;;;18.83;13.25;;;18.40;99.90;;;;;;4962686;28;20057;-71
2023/06/20 03:52:42;;;;;;;17.77;12.23;;;18.40;99.90;;;;;;5029774;28;20401;-71
2023/06/20 03:55:08;;;;;;;15.98;12.85;;;18.40;99.90;;;;;;4962906;28;20050;-71
2023/06/20 03:57:34;;;;;;;18.27;11.90;;;18.50;99.90;;;;;;4964935;28;20573;-72
2023/06/20 03:59:59;;;;;;;15.30;12.80;;;18.50;99.90;;;;;;4956976;28;20035;-71
2023/06/20 04:02:25;;;;;;;14.48;12.52;;;18.50;99.90;;;;;;4953016;28;20040;-71
2023/06/20 04:04:51;;;;;;;16.95;12.32;;;18.50;99.90;;;;;;5032162;28;20078;-71
2023/06/20 04:07:18;;;;;;;16.08;12.48;;;18.50;99.90;;;;;;4963339;28;20039;-71
2023/06/20 04:09:50;;;;;;;17.00;12.27;;;18.50;99.90;;;;;;4965628;28;20058;-71
2023/06/20 04:12:16;;;;;;;15.50;12.40;;;18.60;99.90;;;;;;4963782;28;20461;-71
2023/06/20 04:14:42;;;;;;;13.60;12.20;;;18.60;99.90;;;;;;5040282;28;20058;-72
2023/06/20 04:17:08;;;;;;;18.65;12.93;;;18.60;99.90;;;;;;4958251;28;20042;-71
2023/06/20 04:19:34;;;;;;;19.33;13.57;;;18.60;99.90;;;;;;4963270;28;20472;-71
2023/06/20 04:22:00;;;;;;;15.27;11.90;;;18.70;99.90;;;;;;4965115;28;20039;-71
2023/06/20 04:24:25;;;;;;;16.52;12.50;;;18.70;99.90;;;;;;4960206;28;20373;-71
2023/06/20 04:26:52;;;;;;;15.35;12.45;;;18.70;99.90;;;;;;4961753;28;20050;-72
2023/06/20 04:29:18;;;;;;;15.75;13.13;;;18.60;99.90;;;;;;4970502;28;20054;-72
2023/06/20 04:31:44;;;;;;;16.83;12.32;;;18.70;99.90;;;;;;4956936;28;20050;-71
2023/06/20 04:34:09;;;;;;;14.77;12.00;;;18.70;99.90;;;;;;4964470;28;20051;-71
2023/06/20 04:36:35;;;;;;;12.68;11.20;;;18.70;99.90;;;;;;4956525;28;20039;-72
2023/06/20 04:39:04;;;;;;;14.45;10.68;;;;;;;;;;4978148;28;20399;-71
2023/06/20 04:41:30;;;;;;;14.40;11.02;;;;;;;;;;4974560;28;20051;-71
2023/06/20 04:43:56;;;;;;;13.85;10.25;;;;;;;;;;4984376;28;20113;-72
2023/06/20 04:46:22;;;;;;;11.98;10.02;;;;;;;;;;4944973;28;20449;-71
2023/06/20 04:48:48;;;;;;;12.70;10.32;;;;;;;;;;4949868;28;20039;-71
2023/06/20 04:51:16;;;;;;;14.35;10.18;;;;;;;;;;4946803;28;20051;-71
2023/06/20 04:53:42;;;;;;;14.13;10.13;;;;;;;;;;4980598;28;20054;-72
2023/06/20 04:56:08;;;;;;;11.90;10.20;;;;;;;;;;4945174;28;20043;-71
2023/06/20 04:58:34;;;;;;;12.18;9.25;;;;;;;;;;4960030;28;20408;-71
2023/06/20 05:01:00;;;;;;;13.93;9.55;;;;;;;;;;4994465;28;20055;-71
2023/06/20 05:03:26;;;;;;;11.52;9.02;;;;;;;;;;4949195;28;20490;-71
2023/06/20 05:05:52;;;;;;;13.68;9.98;;;;;;;;;;5014245;28;20149;-71
2023/06/20 05:08:19;;;;;;;13.10;9.95;;;;;;;;;;4958674;28;20063;-71
2023/06/20 05:10:45;;;;;;;13.90;9.35;;;;;;;;;;4976258;28;20479;-71
2023/06/20 05:13:11;;;;;;;12.40;9.57;;;;;;;;;;4996549;28;20051;-71
2023/06/20 05:15:37;;;;;;;12.00;10.15;;;;;;;;;;5000298;28;20055;-73
2023/06/20 05:18:03;;;;;;;12.45;10.20;;;;;;;;;;4961129;28;20108;-72
2023/06/20 05:20:29;;;;;;;12.18;9.82;;;;;;;;;;4947964;28;20507;-72
2023/06/20 05:22:55;;;;;;;13.30;9.25;;;;;;;;;;4944622;28;20074;-72
2023/06/20 05:25:21;;;;;;;14.13;9.45;;;;;;;;;;5003277;28;20148;-72
2023/06/20 05:27:47;;;;;;;11.38;9.75;;;;;;;;;;4943095;28;20039;-72
2023/06/20 05:30:13;;;;;;;11.93;10.30;;;;;;;;;;4944703;28;20039;-72
2023/06/20 05:32:40;;;;;;;11.88;9.65;;;;;;;;;;4949150;28;20039;-72
2023/06/20 05:35:07;;;;;;;12.85;10.05;;;;;;;;;;4946642;28;20491;-72
2023/06/20 05:37:33;;;;;;;12.73;10.57;;;;;;;;;;5011170;28;20063;-72
2023/06/20 05:39:59;;;;;;;12.52;10.75;;;;;;;;;;4959876;28;20086;-72
2023/06/20 05:42:25;;;;;;;13.27;10.15;;;;;;;;;;4991461;28;20264;-72
2023/06/20 05:44:51;;;;;;;15.57;11.07;;;;;;;;;;4988993;28;20126;-81
2023/06/20 05:47:17;;;;;;;13.77;10.80;;;;;;;;;;4948598;28;20046;-72
2023/06/20 05:49:44;;;;;;;13.65;9.70;;;;;;;;;;4972396;28;20054;-73
2023/06/20 05:52:10;;;;;;;12.25;9.85;;;;;;;;;;4948588;28;20129;-73
2023/06/20 05:54:36;;;;;;;13.98;10.30;;;;;;;;;;4984772;28;20047;-73
2023/06/20 05:57:05;;;;;;;12.98;10.13;;;;;;;;;;4946193;28;20061;-72
2023/06/20 05:59:31;;;;;;;12.77;10.77;;;;;;;;;;4948568;28;20503;-74
2023/06/20 06:01:57;;;;;;;13.00;9.85;;;;;;;;;;4998451;28;20126;-73
2023/06/20 06:04:23;;;;;;;14.05;10.90;;;;;;;;;;4947335;28;20051;-73
2023/06/20 06:06:49;;;;;;;11.93;10.35;;;;;;;;;;4991182;28;20047;-73
2023/06/20 06:09:15;;;;;;;15.82;11.30;;;;;;;;;;4956387;28;20116;-73
2023/06/20 06:11:41;;;;;;;14.77;11.00;;;;;;;;;;4979358;28;20125;-73
2023/06/20 06:14:07;;;;;;;11.65;9.57;;;;;;;;;;4981804;28;20139;-73
2023/06/20 06:16:35;;;;;;;13.10;10.82;;;;;;;;;;4980799;28;20047;-74
2023/06/20 06:19:02;;;;;;;14.02;9.88;;;;;;;;;;4945070;28;20568;-72
2023/06/20 06:21:28;;;;;;;13.57;10.90;;;;;;;;;;4948267;28;20051;-71
2023/06/20 06:23:54;;;;;;;13.27;10.60;;;;;;;;;;4982088;28;20395;-71
2023/06/20 06:26:20;;;;;;;12.05;10.45;;;;;;;;;;4952904;28;20552;-71
2023/06/20 06:28:46;;;;;;;14.73;10.90;;;;;;;;;;4948321;28;20047;-73
2023/06/20 06:31:14;;;;;;;19.48;12.45;;;;;;;;;;4948918;28;20058;-71
2023/06/20 06:33:41;;;;;;;13.50;10.40;;;;;;;;;;4945014;28;20043;-71
2023/06/20 06:36:08;;;;;;;14.82;11.07;;;;;;;;;;4963820;28;20055;-71
2023/06/20 06:38:34;;;;;;;13.23;11.23;;;;;;;;;;4974433;28;20052;-71
2023/06/20 06:41:00;;;;;;;12.20;9.82;;;;;;;;;;4993615;28;20117;-70
2023/06/20 06:43:26;;;;;;;15.52;11.15;;;;;;;;;;5014966;28;20042;-71
2023/06/20 06:45:52;;;;;;;13.88;10.38;;;;;;;;;;4941654;28;20074;-73
2023/06/20 06:48:18;;;;;;;11.73;9.63;;;;;;;;;;4998713;28;20043;-71
2023/06/20 06:50:45;;;;;;;11.93;9.48;;;;;;;;;;4940590;28;20047;-71
2023/06/20 06:53:12;;;;;;;12.07;9.75;;;;;;;;;;5007827;28;20043;-72
2023/06/20 06:55:38;;;;;;;14.75;10.18;;;;;;;;;;4997287;28;20492;-72
2023/06/20 06:58:04;;;;;;;25.38;13.10;;;;;;;;;;4943683;28;20450;-72
2023/06/20 07:00:31;;;;;;;13.30;9.90;;;;;;;;;;4955686;28;20109;-81
2023/06/20 07:02:57;;;;;;;14.23;10.05;;;;;;;;;;4988970;28;20047;-82
2023/06/20 07:05:23;;;;;;;13.02;10.35;;;;;;;;;;5013318;28;20381;-85
2023/06/20 07:07:49;;;;;;;14.60;10.52;;;;;;;;;;4943737;28;20047;-84
2023/06/20 07:10:15;;;;;;;12.98;10.10;;;;;;;;;;4958857;28;20395;-83
2023/06/20 07:12:41;;;;;;;11.80;9.88;;;;;;;;;;5010468;28;20046;-84
2023/06/20 07:15:07;;;;;;;11.88;10.38;;;;;;;;;;4951341;28;20403;-84
2023/06/20 07:17:34;;;;;;;14.77;11.15;;;;;;;;;;4943207;28;20522;-85
2023/06/20 07:20:00;;;;;;;13.45;11.02;;;;;;;;;;4945101;28;20043;-86
2023/06/20 07:22:26;;;;;;;12.75;11.05;;;;;;;;;;4945051;28;20483;-83
2023/06/20 07:24:52;;;;;;;16.80;12.82;;;;;;;;;;4949485;28;20153;-84
2023/06/20 07:27:18;;;;;;;12.95;10.68;;;;;;;;;;4956049;28;20088;-81
2023/06/20 07:29:44;;;;;;;14.73;10.07;;;;;;;;;;4946424;28;20487;-82
2023/06/20 07:32:10;;;;;;;13.27;10.35;;;;;;;;;;4998027;28;20047;-74
2023/06/20 07:34:36;;;;;;;12.13;10.52;;;;;;;;;;4946931;28;20130;-82
2023/06/20 07:37:02;;;;;;;12.88;10.65;;;;;;;;;;4950109;28;20451;-82
2023/06/20 07:39:28;;;;;;;12.93;10.35;;;;;;;;;;4972664;28;20051;-82
2023/06/20 07:41:54;;;;;;;14.70;11.38;;;;;;;;;;4953345;28;20051;-85
2023/06/20 07:44:20;;;;;;;12.88;10.73;;;;;;;;;;4951138;28;20054;-84
2023/06/20 07:46:46;;;;;;;12.82;10.50;;;;;;;;;;4951600;28;20497;-84
2023/06/20 07:49:12;;;;;;;13.18;11.13;;;;;;;;;;4979685;28;20047;-86
2023/06/20 07:51:40;;;;;;;13.20;11.70;;;;;;;;;;4995276;28;20051;-84
2023/06/20 07:54:06;;;;;;;16.20;11.60;;;;;;;;;;4949467;28;20047;-84
2023/06/20 07:56:33;;;;;;;13.40;11.45;;;;;;;;;;4950135;28;20097;-84
2023/06/20 07:58:59;;;;;;;12.95;11.30;;;;;;;;;;4971528;28;20036;-84
2023/06/20 08:01:25;;;;;;;13.93;11.18;;;;;;;;;;4950546;28;20039;-83
2023/06/20 08:03:51;;;;;;;31.05;14.50;;;;;;;;;;4948073;28;20066;-84
2023/06/20 08:06:17;;;;;;;15.18;11.70;;;;;;;;;;4950553;28;20471;-84
2023/06/20 08:08:43;;;;;;;18.48;11.50;;;;;;;;;;4948607;28;20051;-83
2023/06/20 08:11:09;;;;;;;13.95;12.02;;;;;;;;;;4950347;28;20043;-84
2023/06/20 08:13:35;;;;;;;13.20;11.10;;;;;;;;;;4962153;28;20531;-84
2023/06/20 08:16:01;;;;;;;14.60;11.02;;;;;;;;;;4962347;28;20082;-84
2023/06/20 08:18:27;;;;;;;14.50;11.43;;;;;;;;;;4945957;28;20100;-83
2023/06/20 08:20:53;;;;;;;12.00;10.35;;;;;;;;;;4948246;28;20566;-84
2023/06/20 08:23:26;;;;;;;18.60;11.85;;;;;;;;;;4990986;28;20123;-84
2023/06/20 08:25:56;;;;;;;13.57;10.60;;;;;;;;;;4961253;28;20047;-84
2023/06/20 08:28:22;;;;;;;11.60;10.40;;;;;;;;;;4960454;28;20048;-84
2023/06/20 08:30:48;;;;;;;12.60;10.48;;;;;;;;;;4967530;28;20100;-83
2023/06/20 08:33:14;;;;;;;11.90;10.38;;;;;;;;;;4949393;28;20047;-84
2023/06/20 08:35:40;;;;;;;12.48;10.60;;;;;;;;;;4954190;28;20097;-84
2023/06/20 08:38:06;;;;;;;12.38;11.13;;;;;;;;;;4954605;28;20150;-84
2023/06/20 08:40:33;;;;;;;11.68;10.43;;;;;;;;;;5023104;28;20062;-84
2023/06/20 08:43:00;;;;;;;11.52;10.32;;;;;;;;;;5033457;28;20051;-84
2023/06/20 08:45:27;;;;;;;12.30;10.70;;;;;;;;;;4964436;28;20050;-84
2023/06/20 08:47:58;;;;;;;11.50;10.18;;;;;;;;;;5033842;28;20047;-85
2023/06/20 08:50:24;;;;;;;12.70;10.73;;;;;;;;;;4955220;28;20483;-84
2023/06/20 08:52:53;;;;;;;12.07;10.65;;;;;;;;;;5029635;28;20046;-84
2023/06/20 08:55:20;;;;;;;11.63;10.52;;;;;;;;;;4959644;28;20531;-84
2023/06/20 08:57:47;;;;;;;13.02;11.30;;;;;;;;;;5026924;28;20039;-85
2023/06/20 09:00:17;;;;;;;12.02;10.77;;;;;;;;;;4956954;28;20526;-85
2023/06/20 09:02:43;;;;;;;12.60;10.63;;;;;;;;;;4954270;28;20042;-84
2023/06/20 09:05:09;;;;;;;13.90;11.07;;;;;;;;;;5020725;28;20042;-85
2023/06/20 09:07:36;;;;;;;13.23;11.48;;;;;;;;;;4964714;28;20040;-84
2023/06/20 09:10:03;;;;;;;13.20;11.68;;;;;;;;;;5033863;28;20135;-85
2023/06/20 09:12:29;;;;;;;13.48;11.40;;;;;;;;;;4960189;28;20881;-84
2023/06/20 09:14:57;;;;;;;12.77;10.88;;;;;;;;;;4959627;28;20043;-84
2023/06/20 09:17:23;;;;;;;13.27;11.25;;;;;;;;;;4964280;28;20057;-84
2023/06/20 09:19:50;;;;;;;13.30;10.98;;;;;;;;;;5031975;28;20399;-84
2023/06/20 09:22:18;;;;;;;12.50;11.18;;;;;;;;;;4965711;28;20123;-84
2023/06/20 09:24:45;;;;;;;13.10;11.70;;;;;;;;;;4941979;28;20054;-85
2023/06/20 09:27:12;;;;;;;13.55;12.10;;;;;;;;;;4965685;28;20046;-84
2023/06/20 09:29:51;;;;;;;13.20;11.80;;;;;;;;;;4945691;28;20126;-84
2023/06/20 09:32:21;;;;;;;13.35;11.70;;;;;;;;;;4957901;28;20130;-84
2023/06/20 09:34:47;;;;;;;14.18;12.70;;;;;;;;;;4964580;28;20039;-84
2023/06/20 09:37:15;;;;;;;14.32;11.77;;;;;;;;;;4962677;28;20047;-83
2023/06/20 09:39:41;;;;;;;14.40;12.70;;;;;;;;;;4958649;28;20525;-83
2023/06/20 09:42:11;;;;;;;13.35;12.05;;;;;;;;;;4957129;28;20047;-83
2023/06/20 09:44:37;;;;;;;15.80;13.15;;;;;;;;;;5023940;28;20058;-82
2023/06/20 09:47:05;;;;;;;13.38;11.88;;;;;;;;;;4957748;28;20082;-83
2023/06/20 09:49:31;;;;;;;14.57;12.32;;;;;;;;;;4961122;28;20092;-83
2023/06/20 09:52:02;;;;;;;14.35;12.85;;;;;;;;;;4965657;28;20043;-82
2023/06/20 09:54:57;;;;;;;15.23;11.93;;;;;;;;;;4953838;28;20054;-82
2023/06/20 09:57:35;;;;;;;13.07;11.70;;;;;;;;;;4962204;28;20058;-82
2023/06/20 10:00:04;;;;;;;13.93;12.55;;;;;;;;;;5025675;28;20082;-82
2023/06/20 10:02:31;;;;;;;15.30;12.43;;;;;;;;;;4961094;28;20058;-82
2023/06/20 10:04:57;;;;;;;12.93;11.63;;;;;;;;;;5017653;28;20498;-83
2023/06/20 10:07:25;;;;;;;13.75;12.35;;;;;;;;;;4960232;28;20050;-82
2023/06/20 10:09:54;;;;;;;14.45;12.70;;;;;;;;;;5032461;28;20046;-82
2023/06/20 10:12:20;;;;;;;13.10;11.13;;;;;;;;;;4951354;28;20525;-82
2023/06/20 10:14:48;;;;;;;14.73;12.80;;;;;;;;;;5032604;28;20039;-82
2023/06/20 10:17:15;;;;;;;13.43;11.32;;;;;;;;;;4955925;28;20138;-83
2023/06/20 10:19:48;;;;;;;13.25;11.85;;;;;;;;;;5017928;28;20058;-82
2023/06/20 10:22:14;;;;;;;13.55;12.20;;;;;;;;;;4964274;28;20376;-83
2023/06/20 10:24:42;;;;;;;17.58;11.75;;;;;;;;;;5029922;28;20054;-82
2023/06/20 10:27:08;;;;;;;15.73;14.02;;;;;;;;;;5018535;28;20069;-84
2023/06/20 10:29:41;;;;;;;13.27;11.23;;;;;;;;;;5004150;28;20055;-83
2023/06/20 10:32:07;;;;;;;12.10;10.82;;;;;;;;;;4957086;28;20601;-83
2023/06/20 10:34:38;;;;;;;12.60;10.38;;;;;;;;;;4953323;28;20131;-82
2023/06/20 10:37:20;;;;;;;11.50;10.30;;;;;;;;;;4937239;28;20498;-83
2023/06/20 10:39:56;;;;;;;12.73;10.63;;;;;;;;;;4992084;28;20051;-83
2023/06/20 10:42:31;;;;;;;12.30;9.60;;;;;;;;;;4922400;28;20043;-83
2023/06/20 10:45:16;;;;;;;12.77;11.13;;;;;;;;;;4920026;28;20043;-84
2023/06/20 10:47:42;;;;;;;11.32;10.20;;;;;;;;;;4915215;28;20126;-83
2023/06/20 10:50:10;;;;;;;11.73;10.50;;;;;;;;;;4976234;28;20052;-84
2023/06/20 10:52:37;;;;;;;9.85;8.85;;;;;;;;;;4922343;29;20044;-83
2023/06/20 10:55:03;;;;;;;11.02;9.93;;;;;;;;;;4927801;28;20047;-84
2023/06/20 10:57:29;;;;;;;10.10;9.07;;;;;;;;;;4926224;28;20047;-84
2023/06/20 10:59:55;;;;;;;9.77;8.77;;;;;;;;;;5000246;28;20488;-83
2023/06/20 11:02:22;;;;;;;10.57;8.93;;;;;;;;;;4925064;28;20048;-83
2023/06/20 11:04:48;;;;;;;9.77;8.77;;;;;;;;;;4975195;28;20059;-83
2023/06/20 11:07:14;;;;;;;8.30;7.50;;;;;;;;;;4921742;28;20134;-85
2023/06/20 11:09:40;;;;;;;9.60;8.65;;;;;;;;;;4924660;28;20043;-84
2023/06/20 11:12:10;;;;;;;9.80;8.73;;;;;;;;;;4935512;28;20048;-85
2023/06/20 11:14:36;;;;;;;8.25;7.45;;;;;;;;;;4926583;28;20387;-84
2023/06/20 11:17:02;;;;;;;10.07;9.07;;;;;;;;;;4926525;28;20365;-84
2023/06/20 11:19:28;;;;;;;10.15;9.15;;;;;;;;;;4941173;28;20414;-85
2023/06/20 11:21:55;;;;;;;9.27;8.27;;;;;;;;;;4926899;28;20055;-84
2023/06/20 11:24:21;;;;;;;10.73;7.75;;;;;;;;;;4923275;28;20403;-84
2023/06/20 11:26:47;;;;;;;17.05;8.30;;;;;;;;;;4983161;28;20048;-84
2023/06/20 11:29:13;;;;;;;8.63;7.72;;;;;;;;;;4927187;28;20055;-84
2023/06/20 11:31:39;;;;;;;9.00;7.03;;;;;;;;;;4921253;28;20054;-84
2023/06/20 11:34:06;;;;;;;13.07;8.30;;;;;;;;;;4928650;28;20411;-84
2023/06/20 11:36:33;;;;;;;9.10;8.02;;;;;;;;;;4926462;28;20051;-84
2023/06/20 11:39:06;;;;;;;8.75;7.85;;;;;;;;;;5016809;28;20105;-84
2023/06/20 11:41:32;;;;;;;9.27;8.07;;;;;;;;;;4941570;28;20134;-84
2023/06/20 11:43:58;;;;;;;8.77;7.35;;;;;;;;;;4942424;28;20371;-84
2023/06/20 11:46:25;;;;;;;8.48;7.55;;;;;;;;;;4946002;28;20598;-84
2023/06/20 11:48:52;;;;;;;8.43;7.50;;;;;;;;;;4952419;28;20049;-84
2023/06/20 11:51:20;;;;;;;8.70;7.80;;;;;;;;;;5030758;28;20051;-85
2023/06/20 11:53:47;;;;;;;8.75;7.53;;;;;;;;;;4994922;28;20047;-81
2023/06/20 11:56:14;;;;;;;8.07;7.28;;;;;;;;;;4969050;28;20048;-79
2023/06/20 11:58:47;;;;;;;14.93;8.48;;;;;;;;;;4946019;28;20113;-84
2023/06/20 12:01:20;;;;;;;7.78;6.97;;;;;;;;;;4950025;28;20134;-84
2023/06/20 12:03:47;;;;;;;7.47;6.78;;;;;;;;;;4971368;28;20042;-84
2023/06/20 12:06:27;;;;;;;7.40;6.63;;;;;;;;;;4989488;28;20043;-84
2023/06/20 12:08:54;;;;;;;8.98;6.63;;;;;;;;;;4948937;28;20051;-84
2023/06/20 12:11:20;;;;;;;7.60;6.80;;;;;;;;;;4948628;28;20054;-85
2023/06/20 12:13:47;;;;;;;7.00;6.30;;;;;;;;;;4949363;28;20044;-84
2023/06/20 12:16:13;;;;;;;6.95;6.22;;;;;;;;;;4947687;28;20129;-84
2023/06/20 12:18:39;;;;;;;6.97;6.28;;;;;;;;;;4947866;28;20043;-84
2023/06/20 12:21:05;;;;;;;6.95;6.25;;;;;;;;;;4951463;28;20051;-84
2023/06/20 12:23:31;;;;;;;7.40;6.70;;;;;;;;;;4950241;28;20054;-84
2023/06/20 12:25:58;;;;;;;8.75;6.63;;;;;;;;;;4944707;28;20407;-83
2023/06/20 12:28:24;;;;;;;7.53;6.72;;;;;;;;;;4969338;28;20043;-84
2023/06/20 12:30:50;;;;;;;6.95;6.35;;;;;;;;;;4948801;28;20079;-84
2023/06/20 12:33:16;;;;;;;7.28;6.53;;;;;;;;;;4948840;28;20161;-84
2023/06/20 12:35:42;;;;;;;9.80;7.10;;;;;;;;;;4951793;28;20042;-84
2023/06/20 12:38:10;;;;;;;7.80;6.95;;;;;;;;;;4956261;28;20058;-84
2023/06/20 12:40:36;;;;;;;7.53;6.82;;;;;;;;;;4957417;28;20083;-85
2023/06/20 12:43:02;;;;;;;8.00;7.30;;;;;;;;;;4957508;28;20043;-84
2023/06/20 12:45:28;;;;;;;8.18;7.38;;;;;;;;;;4948715;28;20407;-84
2023/06/20 12:47:54;;;;;;;7.57;6.78;;;;;;;;;;4940881;28;20427;-84
2023/06/20 12:50:20;;;;;;;7.93;7.05;;;;;;;;;;4964070;28;20113;-84
2023/06/20 12:52:46;;;;;;;8.10;7.00;;;;;;;;;;4959775;28;20583;-83
2023/06/20 12:55:13;;;;;;;9.52;7.13;;;;;;;;;;4959077;28;20061;-84
2023/06/20 12:57:39;;;;;;;6.47;5.78;;;;;;;;;;4950189;28;20369;-85
2023/06/20 13:00:06;;;;;;;7.47;6.65;;;;;;;;;;5021670;28;20101;-85
2023/06/20 13:02:33;;;;;;;7.28;6.28;;;;;;;;;;4957764;28;20479;-84
2023/06/20 13:04:59;;;;;;;7.90;7.10;;;;;;;;;;4963414;28;20066;-85
2023/06/20 13:07:25;;;;;;;8.65;6.85;;;;;;;;;;5020596;28;20407;-84
2023/06/20 13:09:52;;;;;;;8.23;7.05;;;;;;;;;;4963253;28;20043;-84
2023/06/20 13:12:19;;;;;;;7.78;6.85;;;;;;;;;;4947042;28;20111;-85
2023/06/20 13:14:47;;;;;;;15.13;7.50;;;;;;;;;;5060679;28;20516;-83
2023/06/20 13:17:14;;;;;;;7.15;6.30;;;;;;;;;;5016941;28;20094;-83
2023/06/20 13:19:40;;;;;;;6.65;5.82;;;;;;;;;;5027165;28;20128;-84
2023/06/20 13:22:06;;;;;;;6.78;6.05;;;;;;;;;;5029718;28;20074;-85
2023/06/20 13:24:32;;;;;;;6.82;6.22;;;;;;;;;;4961345;28;20047;-83
2023/06/20 13:26:58;;;;;;;6.05;5.55;;;;;;;;;;4955223;28;20418;-84
2023/06/20 13:29:25;;;;;;;6.15;5.55;;;;;;;;;;4959674;28;20046;-84
2023/06/20 13:31:51;;;;;;;7.20;5.18;;;;;;;;;;4956525;28;20061;-84
2023/06/20 13:34:17;;;;;;;5.75;5.15;;;;;;;;;;4947717;28;20511;-84
2023/06/20 13:36:43;;;;;;;6.88;6.10;;;;;;;;;;4957608;28;20080;-84
2023/06/20 13:39:09;;;;;;;6.80;6.10;;;;;;;;;;5030193;28;20062;-84
2023/06/20 13:41:35;;;;;;;6.60;6.00;;;;;;;;;;5024640;28;20090;-83
2023/06/20 13:44:01;;;;;;;6.45;5.60;;;;;;;;;;4957423;28;20111;-84
2023/06/20 13:46:27;;;;;;;6.40;5.80;;;;;;;;;;5020793;28;20051;-84